sensor_id;sensor_type;location;lat;lon;timestamp;temperature;humidity
22966;DHT22;11649;48.090;9.754;2022-08-14T00:02:00;15.10;99.90
22966;DHT22;11649;48.090;9.754;2022-08-14T00:04:32;14.90;99.90
22966;DHT22;11649;48.090;9.754;2022-08-14T00:07:03;15.00;99.90
22966;DHT22;11649;48.090;9.754;2022-08-14T00:09:32;14.90;99.90
22966;DHT22;11649;48.090;9.754;2022-08-14T00:12:05;15.50;99.90
22966;DHT22;11649;48.090;9.754;2022-08-14T00:14:50;14.70;99.90
22966;DHT22;11649;48.090;9.754;2022-08-14T00:17:21;14.80;99.90
22966;DHT22;11649;48.090;9.754;2022-08-14T00:19:48;14.80;99.90
22966;DHT22;11649;48.090;9.754;2022-08-14T00:22:17;14.90;99.90
22966;DHT22;11649;48.090;9.754;2022-08-14T00:25:08;14.80;99.90
22966;DHT22;11649;48.090;9.754;2022-08-14T00:27:36;14.70;99.90
22966;DHT22;11649;48.090;9.754;2022-08-14T00:30:08;15.30;99.90
22966;DHT22;11649;48.090;9.754;2022-08-14T00:32:40;14.90;99.90
22966;DHT22;11649;48.090;9.754;2022-08-14T00:35:22;14.90;99.90
22966;DHT22;11649;48.090;9.754;2022-08-14T00:38:09;15.20;99.90
22966;DHT22;11649;48.090;9.754;2022-08-14T00:40:36;15.50;99.90
22966;DHT22;11649;48.090;9.754;2022-08-14T00:43:04;15.40;99.90
22966;DHT22;11649;48.090;9.754;2022-08-14T00:45:32;15.70;99.90
22966;DHT22;11649;48.090;9.754;2022-08-14T00:47:59;15.30;99.90
22966;DHT22;11649;48.090;9.754;2022-08-14T00:50:26;15.20;99.90
22966;DHT22;11649;48.090;9.754;2022-08-14T00:52:57;15.70;99.90
22966;DHT22;11649;48.090;9.754;2022-08-14T00:55:29;15.50;99.90
22966;DHT22;11649;48.090;9.754;2022-08-14T00:57:58;14.80;99.90
22966;DHT22;11649;48.090;9.754;2022-08-14T01:00:44;15.20;99.90
22966;DHT22;11649;48.090;9.754;2022-08-14T01:03:24;14.40;99.90
22966;DHT22;11649;48.090;9.754;2022-08-14T01:05:51;14.40;99.90
22966;DHT22;11649;48.090;9.754;2022-08-14T01:08:30;14.70;99.90
22966;DHT22;11649;48.090;9.754;2022-08-14T01:11:17;14.50;99.90
22966;DHT22;11649;48.090;9.754;2022-08-14T01:13:46;14.50;99.90
22966;DHT22;11649;48.090;9.754;2022-08-14T01:16:21;14.80;99.90
22966;DHT22;11649;48.090;9.754;2022-08-14T01:18:56;14.40;99.90
22966;DHT22;11649;48.090;9.754;2022-08-14T01:21:45;14.80;99.90
22966;DHT22;11649;48.090;9.754;2022-08-14T01:24:20;13.90;99.90
22966;DHT22;11649;48.090;9.754;2022-08-14T01:26:57;13.90;99.90
22966;DHT22;11649;48.090;9.754;2022-08-14T01:29:28;13.80;99.90
22966;DHT22;11649;48.090;9.754;2022-08-14T01:32:20;13.90;99.90
22966;DHT22;11649;48.090;9.754;2022-08-14T01:34:54;14.20;99.90
22966;DHT22;11649;48.090;9.754;2022-08-14T01:37:46;14.40;99.90
22966;DHT22;11649;48.090;9.754;2022-08-14T01:40:26;14.30;99.90
22966;DHT22;11649;48.090;9.754;2022-08-14T01:43:10;14.00;99.90
22966;DHT22;11649;48.090;9.754;2022-08-14T01:45:40;13.90;99.90
22966;DHT22;11649;48.090;9.754;2022-08-14T01:48:07;14.20;99.90
22966;DHT22;11649;48.090;9.754;2022-08-14T01:50:39;14.50;99.90
22966;DHT22;11649;48.090;9.754;2022-08-14T01:53:08;14.10;99.90
22966;DHT22;11649;48.090;9.754;2022-08-14T01:55:36;14.30;99.90
22966;DHT22;11649;48.090;9.754;2022-08-14T01:58:06;14.50;99.90
22966;DHT22;11649;48.090;9.754;2022-08-14T02:00:50;14.30;99.90
22966;DHT22;11649;48.090;9.754;2022-08-14T02:03:29;14.80;99.90
22966;DHT22;11649;48.090;9.754;2022-08-14T02:05:57;14.50;99.90
22966;DHT22;11649;48.090;9.754;2022-08-14T02:08:45;15.10;99.90
22966;DHT22;11649;48.090;9.754;2022-08-14T02:11:21;15.00;99.90
22966;DHT22;11649;48.090;9.754;2022-08-14T02:13:50;14.80;99.90
22966;DHT22;11649;48.090;9.754;2022-08-14T02:16:21;15.60;99.90
22966;DHT22;11649;48.090;9.754;2022-08-14T02:18:52;14.70;99.90
22966;DHT22;11649;48.090;9.754;2022-08-14T02:21:20;14.50;99.90
22966;DHT22;11649;48.090;9.754;2022-08-14T02:23:50;13.80;99.90
22966;DHT22;11649;48.090;9.754;2022-08-14T02:26:22;14.20;99.90
22966;DHT22;11649;48.090;9.754;2022-08-14T02:28:59;13.90;99.90
22966;DHT22;11649;48.090;9.754;2022-08-14T02:31:31;14.00;99.90
22966;DHT22;11649;48.090;9.754;2022-08-14T02:34:18;14.00;99.90
22966;DHT22;11649;48.090;9.754;2022-08-14T02:36:55;14.00;99.90
22966;DHT22;11649;48.090;9.754;2022-08-14T02:39:34;14.30;99.90
22966;DHT22;11649;48.090;9.754;2022-08-14T02:42:03;14.40;99.90
22966;DHT22;11649;48.090;9.754;2022-08-14T02:44:31;14.30;99.90
22966;DHT22;11649;48.090;9.754;2022-08-14T02:47:06;14.30;99.90
22966;DHT22;11649;48.090;9.754;2022-08-14T02:49:44;14.10;99.90
22966;DHT22;11649;48.090;9.754;2022-08-14T02:52:16;13.60;99.90
22966;DHT22;11649;48.090;9.754;2022-08-14T02:55:03;13.40;99.90
22966;DHT22;11649;48.090;9.754;2022-08-14T02:57:33;13.50;99.90
22966;DHT22;11649;48.090;9.754;2022-08-14T03:00:07;13.80;99.90
22966;DHT22;11649;48.090;9.754;2022-08-14T03:02:35;13.50;99.90
22966;DHT22;11649;48.090;9.754;2022-08-14T03:05:22;13.60;99.90
22966;DHT22;11649;48.090;9.754;2022-08-14T03:07:49;13.40;99.90
22966;DHT22;11649;48.090;9.754;2022-08-14T03:10:18;13.40;99.90
22966;DHT22;11649;48.090;9.754;2022-08-14T03:12:57;13.80;99.90
22966;DHT22;11649;48.090;9.754;2022-08-14T03:15:26;13.50;99.90
22966;DHT22;11649;48.090;9.754;2022-08-14T03:17:53;13.40;99.90
22966;DHT22;11649;48.090;9.754;2022-08-14T03:20:25;13.70;99.90
22966;DHT22;11649;48.090;9.754;2022-08-14T03:22:54;13.20;99.90
22966;DHT22;11649;48.090;9.754;2022-08-14T03:25:25;13.20;99.90
22966;DHT22;11649;48.090;9.754;2022-08-14T03:27:52;13.50;99.90
22966;DHT22;11649;48.090;9.754;2022-08-14T03:30:29;13.50;99.90
22966;DHT22;11649;48.090;9.754;2022-08-14T03:33:07;13.40;99.90
22966;DHT22;11649;48.090;9.754;2022-08-14T03:35:37;14.00;99.90
22966;DHT22;11649;48.090;9.754;2022-08-14T03:38:25;13.80;99.90
22966;DHT22;11649;48.090;9.754;2022-08-14T03:41:17;13.90;99.90
22966;DHT22;11649;48.090;9.754;2022-08-14T03:43:50;13.60;99.90
22966;DHT22;11649;48.090;9.754;2022-08-14T03:46:25;13.50;99.90
22966;DHT22;11649;48.090;9.754;2022-08-14T03:49:13;14.00;99.90
22966;DHT22;11649;48.090;9.754;2022-08-14T03:51:54;13.60;99.90
22966;DHT22;11649;48.090;9.754;2022-08-14T03:54:23;13.50;99.90
22966;DHT22;11649;48.090;9.754;2022-08-14T03:56:50;13.50;99.90
22966;DHT22;11649;48.090;9.754;2022-08-14T03:59:18;13.60;99.90
22966;DHT22;11649;48.090;9.754;2022-08-14T04:01:45;13.80;99.90
22966;DHT22;11649;48.090;9.754;2022-08-14T04:04:31;13.90;99.90
22966;DHT22;11649;48.090;9.754;2022-08-14T04:06:59;13.90;99.90
22966;DHT22;11649;48.090;9.754;2022-08-14T04:09:26;13.60;99.90
22966;DHT22;11649;48.090;9.754;2022-08-14T04:11:54;13.50;99.90
22966;DHT22;11649;48.090;9.754;2022-08-14T04:14:25;13.40;99.90
22966;DHT22;11649;48.090;9.754;2022-08-14T04:16:52;13.70;99.90
22966;DHT22;11649;48.090;9.754;2022-08-14T04:19:18;13.60;99.90
22966;DHT22;11649;48.090;9.754;2022-08-14T04:21:50;14.20;99.90
22966;DHT22;11649;48.090;9.754;2022-08-14T04:24:31;13.50;99.90
22966;DHT22;11649;48.090;9.754;2022-08-14T04:27:09;14.40;99.90
22966;DHT22;11649;48.090;9.754;2022-08-14T04:29:41;14.10;99.90
22966;DHT22;11649;48.090;9.754;2022-08-14T04:32:10;13.60;99.90
22966;DHT22;11649;48.090;9.754;2022-08-14T04:34:58;14.30;99.90
22966;DHT22;11649;48.090;9.754;2022-08-14T04:37:25;14.20;99.90
22966;DHT22;11649;48.090;9.754;2022-08-14T04:40:12;14.30;99.90
22966;DHT22;11649;48.090;9.754;2022-08-14T04:43:00;14.50;99.90
22966;DHT22;11649;48.090;9.754;2022-08-14T04:45:46;14.30;99.90
22966;DHT22;11649;48.090;9.754;2022-08-14T04:48:17;14.60;99.90
22966;DHT22;11649;48.090;9.754;2022-08-14T04:51:15;14.00;99.90
22966;DHT22;11649;48.090;9.754;2022-08-14T04:53:44;14.30;99.90
22966;DHT22;11649;48.090;9.754;2022-08-14T04:56:20;14.40;99.90
22966;DHT22;11649;48.090;9.754;2022-08-14T04:59:03;14.20;99.90
22966;DHT22;11649;48.090;9.754;2022-08-14T05:01:40;14.00;99.90
22966;DHT22;11649;48.090;9.754;2022-08-14T05:04:16;13.90;99.90
22966;DHT22;11649;48.090;9.754;2022-08-14T05:06:47;14.10;99.90
22966;DHT22;11649;48.090;9.754;2022-08-14T05:09:15;14.40;99.90
22966;DHT22;11649;48.090;9.754;2022-08-14T05:11:43;14.50;99.90
22966;DHT22;11649;48.090;9.754;2022-08-14T05:14:11;14.70;99.90
22966;DHT22;11649;48.090;9.754;2022-08-14T05:16:58;14.60;99.90
22966;DHT22;11649;48.090;9.754;2022-08-14T05:19:28;15.30;99.90
22966;DHT22;11649;48.090;9.754;2022-08-14T05:21:59;15.60;99.90
22966;DHT22;11649;48.090;9.754;2022-08-14T05:24:45;15.10;99.90
22966;DHT22;11649;48.090;9.754;2022-08-14T05:27:16;15.30;99.90
22966;DHT22;11649;48.090;9.754;2022-08-14T05:29:49;15.40;99.90
22966;DHT22;11649;48.090;9.754;2022-08-14T05:32:15;15.70;99.90
22966;DHT22;11649;48.090;9.754;2022-08-14T05:34:43;15.70;99.90
22966;DHT22;11649;48.090;9.754;2022-08-14T05:37:11;15.60;99.90
22966;DHT22;11649;48.090;9.754;2022-08-14T05:39:41;16.10;99.90
22966;DHT22;11649;48.090;9.754;2022-08-14T05:42:08;16.30;99.90
22966;DHT22;11649;48.090;9.754;2022-08-14T05:44:53;16.20;99.90
22966;DHT22;11649;48.090;9.754;2022-08-14T05:47:22;16.60;99.90
22966;DHT22;11649;48.090;9.754;2022-08-14T05:49:49;16.30;99.90
22966;DHT22;11649;48.090;9.754;2022-08-14T05:52:17;16.40;99.90
22966;DHT22;11649;48.090;9.754;2022-08-14T05:54:52;16.20;99.90
22966;DHT22;11649;48.090;9.754;2022-08-14T05:57:19;16.40;99.90
22966;DHT22;11649;48.090;9.754;2022-08-14T05:59:47;16.20;99.90
22966;DHT22;11649;48.090;9.754;2022-08-14T06:02:13;16.30;99.90
22966;DHT22;11649;48.090;9.754;2022-08-14T06:04:41;16.30;99.90
22966;DHT22;11649;48.090;9.754;2022-08-14T06:07:15;16.40;99.90
22966;DHT22;11649;48.090;9.754;2022-08-14T06:09:42;16.50;99.90
22966;DHT22;11649;48.090;9.754;2022-08-14T06:12:18;17.00;99.90
22966;DHT22;11649;48.090;9.754;2022-08-14T06:15:06;17.00;99.90
22966;DHT22;11649;48.090;9.754;2022-08-14T06:17:51;16.70;99.90
22966;DHT22;11649;48.090;9.754;2022-08-14T06:20:25;16.80;99.90
22966;DHT22;11649;48.090;9.754;2022-08-14T06:22:54;16.90;99.90
22966;DHT22;11649;48.090;9.754;2022-08-14T06:25:22;16.90;99.90
22966;DHT22;11649;48.090;9.754;2022-08-14T06:27:51;17.20;99.90
22966;DHT22;11649;48.090;9.754;2022-08-14T06:30:20;17.00;99.90
22966;DHT22;11649;48.090;9.754;2022-08-14T06:32:49;17.20;99.90
22966;DHT22;11649;48.090;9.754;2022-08-14T06:35:19;17.10;99.90
22966;DHT22;11649;48.090;9.754;2022-08-14T06:40:20;18.30;99.90
22966;DHT22;11649;48.090;9.754;2022-08-14T06:42:59;17.70;99.90
22966;DHT22;11649;48.090;9.754;2022-08-14T06:45:29;17.50;99.90
22966;DHT22;11649;48.090;9.754;2022-08-14T06:47:56;17.60;99.90
22966;DHT22;11649;48.090;9.754;2022-08-14T06:50:24;17.70;99.90
22966;DHT22;11649;48.090;9.754;2022-08-14T06:52:57;17.90;99.90
22966;DHT22;11649;48.090;9.754;2022-08-14T06:55:24;17.80;99.90
22966;DHT22;11649;48.090;9.754;2022-08-14T06:57:54;18.10;99.90
22966;DHT22;11649;48.090;9.754;2022-08-14T07:00:24;18.20;99.90
22966;DHT22;11649;48.090;9.754;2022-08-14T07:02:56;18.10;99.90
22966;DHT22;11649;48.090;9.754;2022-08-14T07:05:41;18.20;99.90
22966;DHT22;11649;48.090;9.754;2022-08-14T07:08:26;18.70;99.90
22966;DHT22;11649;48.090;9.754;2022-08-14T07:10:58;18.30;99.90
22966;DHT22;11649;48.090;9.754;2022-08-14T07:13:26;18.40;99.90
22966;DHT22;11649;48.090;9.754;2022-08-14T07:15:57;18.50;99.90
22966;DHT22;11649;48.090;9.754;2022-08-14T07:18:29;18.70;99.90
22966;DHT22;11649;48.090;9.754;2022-08-14T07:20:57;18.80;99.90
22966;DHT22;11649;48.090;9.754;2022-08-14T07:23:25;18.90;99.90
22966;DHT22;11649;48.090;9.754;2022-08-14T07:25:54;19.00;99.90
22966;DHT22;11649;48.090;9.754;2022-08-14T07:28:24;19.10;99.90
22966;DHT22;11649;48.090;9.754;2022-08-14T07:30:54;19.20;99.90
22966;DHT22;11649;48.090;9.754;2022-08-14T07:33:43;19.40;99.90
22966;DHT22;11649;48.090;9.754;2022-08-14T07:36:18;19.50;99.90
22966;DHT22;11649;48.090;9.754;2022-08-14T07:38:59;19.70;99.90
22966;DHT22;11649;48.090;9.754;2022-08-14T07:41:29;20.00;99.90
22966;DHT22;11649;48.090;9.754;2022-08-14T07:44:00;20.20;99.90
22966;DHT22;11649;48.090;9.754;2022-08-14T07:46:47;20.30;99.90
22966;DHT22;11649;48.090;9.754;2022-08-14T07:49:15;20.40;99.90
22966;DHT22;11649;48.090;9.754;2022-08-14T07:51:43;20.50;99.90
22966;DHT22;11649;48.090;9.754;2022-08-14T07:54:11;20.60;99.90
22966;DHT22;11649;48.090;9.754;2022-08-14T07:56:42;20.80;99.90
22966;DHT22;11649;48.090;9.754;2022-08-14T07:59:13;21.10;99.90
22966;DHT22;11649;48.090;9.754;2022-08-14T08:01:43;21.00;99.90
22966;DHT22;11649;48.090;9.754;2022-08-14T08:04:19;21.30;99.90
22966;DHT22;11649;48.090;9.754;2022-08-14T08:06:51;21.30;99.90
22966;DHT22;11649;48.090;9.754;2022-08-14T08:09:23;21.40;99.90
22966;DHT22;11649;48.090;9.754;2022-08-14T08:12:02;21.60;99.90
22966;DHT22;11649;48.090;9.754;2022-08-14T08:14:40;21.70;99.90
22966;DHT22;11649;48.090;9.754;2022-08-14T08:17:27;21.80;99.90
22966;DHT22;11649;48.090;9.754;2022-08-14T08:20:04;21.90;99.90
22966;DHT22;11649;48.090;9.754;2022-08-14T08:22:34;22.00;98.50
22966;DHT22;11649;48.090;9.754;2022-08-14T08:25:03;22.10;98.90
22966;DHT22;11649;48.090;9.754;2022-08-14T08:27:39;22.10;99.20
22966;DHT22;11649;48.090;9.754;2022-08-14T08:30:11;22.20;99.20
22966;DHT22;11649;48.090;9.754;2022-08-14T08:32:39;22.30;99.20
22966;DHT22;11649;48.090;9.754;2022-08-14T08:35:24;22.30;99.30
22966;DHT22;11649;48.090;9.754;2022-08-14T08:38:16;22.40;98.50
22966;DHT22;11649;48.090;9.754;2022-08-14T08:41:03;22.50;97.60
22966;DHT22;11649;48.090;9.754;2022-08-14T08:43:37;22.60;98.30
22966;DHT22;11649;48.090;9.754;2022-08-14T08:46:12;22.70;98.10
22966;DHT22;11649;48.090;9.754;2022-08-14T08:48:55;22.90;98.40
22966;DHT22;11649;48.090;9.754;2022-08-14T08:51:32;22.90;96.90
22966;DHT22;11649;48.090;9.754;2022-08-14T08:54:08;23.00;97.00
22966;DHT22;11649;48.090;9.754;2022-08-14T08:56:49;23.10;95.90
22966;DHT22;11649;48.090;9.754;2022-08-14T08:59:26;23.40;94.90
22966;DHT22;11649;48.090;9.754;2022-08-14T09:02:05;23.30;95.10
22966;DHT22;11649;48.090;9.754;2022-08-14T09:04:38;23.40;95.30
22966;DHT22;11649;48.090;9.754;2022-08-14T09:07:25;23.40;95.30
22966;DHT22;11649;48.090;9.754;2022-08-14T09:09:57;23.50;94.60
22966;DHT22;11649;48.090;9.754;2022-08-14T09:12:27;23.60;93.80
22966;DHT22;11649;48.090;9.754;2022-08-14T09:14:59;23.70;95.10
22966;DHT22;11649;48.090;9.754;2022-08-14T09:17:27;23.90;94.20
22966;DHT22;11649;48.090;9.754;2022-08-14T09:19:54;23.90;93.80
22966;DHT22;11649;48.090;9.754;2022-08-14T09:22:22;23.90;93.90
22966;DHT22;11649;48.090;9.754;2022-08-14T09:25:03;23.90;94.50
22966;DHT22;11649;48.090;9.754;2022-08-14T09:27:33;24.00;93.80
22966;DHT22;11649;48.090;9.754;2022-08-14T09:30:00;24.00;93.90
22966;DHT22;11649;48.090;9.754;2022-08-14T09:35:58;24.20;94.60
22966;DHT22;11649;48.090;9.754;2022-08-14T09:38:37;24.30;93.60
22966;DHT22;11649;48.090;9.754;2022-08-14T09:44:55;24.40;93.20
22966;DHT22;11649;48.090;9.754;2022-08-14T09:50:31;24.50;94.10
22966;DHT22;11649;48.090;9.754;2022-08-14T09:53:02;24.60;93.80
22966;DHT22;11649;48.090;9.754;2022-08-14T09:55:33;24.60;93.00
22966;DHT22;11649;48.090;9.754;2022-08-14T10:00:54;24.70;93.00
22966;DHT22;11649;48.090;9.754;2022-08-14T10:03:31;24.80;93.40
22966;DHT22;11649;48.090;9.754;2022-08-14T10:08:52;24.70;93.20
22966;DHT22;11649;48.090;9.754;2022-08-14T10:11:25;24.80;92.10
22966;DHT22;11649;48.090;9.754;2022-08-14T10:14:16;24.90;92.60
22966;DHT22;11649;48.090;9.754;2022-08-14T10:16:56;25.00;91.40
22966;DHT22;11649;48.090;9.754;2022-08-14T10:19:25;25.00;91.90
22966;DHT22;11649;48.090;9.754;2022-08-14T10:22:05;25.10;91.60
22966;DHT22;11649;48.090;9.754;2022-08-14T10:24:55;25.10;92.00
22966;DHT22;11649;48.090;9.754;2022-08-14T10:27:25;25.30;91.70
22966;DHT22;11649;48.090;9.754;2022-08-14T10:29:54;25.40;91.50
22966;DHT22;11649;48.090;9.754;2022-08-14T10:32:26;25.40;90.10
22966;DHT22;11649;48.090;9.754;2022-08-14T10:35:12;25.50;90.60
22966;DHT22;11649;48.090;9.754;2022-08-14T10:37:45;25.50;90.40
22966;DHT22;11649;48.090;9.754;2022-08-14T10:40:23;25.60;90.80
22966;DHT22;11649;48.090;9.754;2022-08-14T10:43:18;25.60;90.40
22966;DHT22;11649;48.090;9.754;2022-08-14T10:45:55;25.60;90.80
22966;DHT22;11649;48.090;9.754;2022-08-14T10:48:29;25.80;90.00
22966;DHT22;11649;48.090;9.754;2022-08-14T10:51:07;25.80;89.80
22966;DHT22;11649;48.090;9.754;2022-08-14T10:53:36;25.90;89.50
22966;DHT22;11649;48.090;9.754;2022-08-14T10:56:09;25.90;88.00
22966;DHT22;11649;48.090;9.754;2022-08-14T10:59:03;25.90;90.00
22966;DHT22;11649;48.090;9.754;2022-08-14T11:01:32;26.00;88.40
22966;DHT22;11649;48.090;9.754;2022-08-14T11:04:19;26.10;88.20
22966;DHT22;11649;48.090;9.754;2022-08-14T11:06:54;26.20;86.40
22966;DHT22;11649;48.090;9.754;2022-08-14T11:09:21;26.10;87.70
22966;DHT22;11649;48.090;9.754;2022-08-14T11:11:55;26.10;88.50
22966;DHT22;11649;48.090;9.754;2022-08-14T11:14:52;26.20;88.10
22966;DHT22;11649;48.090;9.754;2022-08-14T11:17:27;26.20;88.30
22966;DHT22;11649;48.090;9.754;2022-08-14T11:19:59;26.40;87.60
22966;DHT22;11649;48.090;9.754;2022-08-14T11:22:27;26.40;87.30
22966;DHT22;11649;48.090;9.754;2022-08-14T11:25:17;26.40;88.00
22966;DHT22;11649;48.090;9.754;2022-08-14T11:27:47;26.50;86.60
22966;DHT22;11649;48.090;9.754;2022-08-14T11:30:18;26.50;86.00
22966;DHT22;11649;48.090;9.754;2022-08-14T11:33:06;26.60;87.00
22966;DHT22;11649;48.090;9.754;2022-08-14T11:35:35;26.60;85.40
22966;DHT22;11649;48.090;9.754;2022-08-14T11:38:14;26.40;86.40
22966;DHT22;11649;48.090;9.754;2022-08-14T11:40:43;26.50;85.90
22966;DHT22;11649;48.090;9.754;2022-08-14T11:43:12;26.60;84.30
22966;DHT22;11649;48.090;9.754;2022-08-14T11:45:44;26.60;84.30
22966;DHT22;11649;48.090;9.754;2022-08-14T11:51:15;26.80;82.50
22966;DHT22;11649;48.090;9.754;2022-08-14T11:53:50;26.80;83.30
22966;DHT22;11649;48.090;9.754;2022-08-14T11:56:17;26.80;84.70
22966;DHT22;11649;48.090;9.754;2022-08-14T11:58:52;26.90;83.10
22966;DHT22;11649;48.090;9.754;2022-08-14T12:01:25;26.90;84.80
22966;DHT22;11649;48.090;9.754;2022-08-14T12:04:10;26.90;84.90
22966;DHT22;11649;48.090;9.754;2022-08-14T12:06:59;27.00;85.50
22966;DHT22;11649;48.090;9.754;2022-08-14T12:09:29;27.10;84.70
22966;DHT22;11649;48.090;9.754;2022-08-14T12:11:56;27.30;84.70
22966;DHT22;11649;48.090;9.754;2022-08-14T12:14:23;27.30;85.00
22966;DHT22;11649;48.090;9.754;2022-08-14T12:17:01;27.40;82.20
22966;DHT22;11649;48.090;9.754;2022-08-14T12:19:30;27.60;81.70
22966;DHT22;11649;48.090;9.754;2022-08-14T12:22:01;27.70;80.30
22966;DHT22;11649;48.090;9.754;2022-08-14T12:24:28;27.70;80.80
22966;DHT22;11649;48.090;9.754;2022-08-14T12:27:05;27.80;81.80
22966;DHT22;11649;48.090;9.754;2022-08-14T12:29:32;28.00;81.60
22966;DHT22;11649;48.090;9.754;2022-08-14T12:32:02;28.20;79.90
22966;DHT22;11649;48.090;9.754;2022-08-14T12:34:38;28.20;80.20
22966;DHT22;11649;48.090;9.754;2022-08-14T12:37:10;28.20;79.90
22966;DHT22;11649;48.090;9.754;2022-08-14T12:39:37;28.20;80.70
22966;DHT22;11649;48.090;9.754;2022-08-14T12:42:06;28.10;82.10
22966;DHT22;11649;48.090;9.754;2022-08-14T12:44:38;28.00;83.20
22966;DHT22;11649;48.090;9.754;2022-08-14T12:47:14;28.20;82.30
22966;DHT22;11649;48.090;9.754;2022-08-14T12:49:51;28.00;82.90
22966;DHT22;11649;48.090;9.754;2022-08-14T12:52:35;28.20;82.90
22966;DHT22;11649;48.090;9.754;2022-08-14T12:55:22;28.20;80.40
22966;DHT22;11649;48.090;9.754;2022-08-14T12:58:09;28.60;80.50
22966;DHT22;11649;48.090;9.754;2022-08-14T13:00:56;28.80;78.90
22966;DHT22;11649;48.090;9.754;2022-08-14T13:03:43;28.90;80.80
22966;DHT22;11649;48.090;9.754;2022-08-14T13:06:11;29.00;79.90
22966;DHT22;11649;48.090;9.754;2022-08-14T13:08:41;29.20;78.50
22966;DHT22;11649;48.090;9.754;2022-08-14T13:11:19;29.40;78.70
22966;DHT22;11649;48.090;9.754;2022-08-14T13:13:49;29.40;78.10
22966;DHT22;11649;48.090;9.754;2022-08-14T13:16:24;29.40;91.00
22966;DHT22;11649;48.090;9.754;2022-08-14T13:19:03;29.30;90.40
22966;DHT22;11649;48.090;9.754;2022-08-14T13:21:35;29.60;88.90
22966;DHT22;11649;48.090;9.754;2022-08-14T13:24:23;29.80;88.00
22966;DHT22;11649;48.090;9.754;2022-08-14T13:26:54;30.10;86.30
22966;DHT22;11649;48.090;9.754;2022-08-14T13:29:26;30.30;84.40
22966;DHT22;11649;48.090;9.754;2022-08-14T13:31:57;30.40;83.40
22966;DHT22;11649;48.090;9.754;2022-08-14T13:34:27;30.40;82.70
22966;DHT22;11649;48.090;9.754;2022-08-14T13:36:57;30.00;84.70
22966;DHT22;11649;48.090;9.754;2022-08-14T13:39:30;30.10;84.20
22966;DHT22;11649;48.090;9.754;2022-08-14T13:42:04;30.00;83.70
22966;DHT22;11649;48.090;9.754;2022-08-14T13:44:40;30.30;84.30
22966;DHT22;11649;48.090;9.754;2022-08-14T13:47:10;30.70;84.50
22966;DHT22;11649;48.090;9.754;2022-08-14T13:49:39;30.90;88.40
22966;DHT22;11649;48.090;9.754;2022-08-14T13:52:24;31.20;88.50
22966;DHT22;11649;48.090;9.754;2022-08-14T13:55:14;31.60;87.60
22966;DHT22;11649;48.090;9.754;2022-08-14T13:57:43;31.60;86.30
22966;DHT22;11649;48.090;9.754;2022-08-14T14:00:16;31.50;86.60
22966;DHT22;11649;48.090;9.754;2022-08-14T14:02:58;31.20;87.10
22966;DHT22;11649;48.090;9.754;2022-08-14T14:05:26;31.80;85.90
22966;DHT22;11649;48.090;9.754;2022-08-14T14:08:14;32.20;83.40
22966;DHT22;11649;48.090;9.754;2022-08-14T14:11:02;32.90;86.20
22966;DHT22;11649;48.090;9.754;2022-08-14T14:13:30;34.00;84.90
22966;DHT22;11649;48.090;9.754;2022-08-14T14:15:57;34.70;84.40
22966;DHT22;11649;48.090;9.754;2022-08-14T14:18:30;34.40;81.50
22966;DHT22;11649;48.090;9.754;2022-08-14T14:21:01;34.10;81.40
22966;DHT22;11649;48.090;9.754;2022-08-14T14:23:28;33.90;83.40
22966;DHT22;11649;48.090;9.754;2022-08-14T14:25:58;33.80;83.90
22966;DHT22;11649;48.090;9.754;2022-08-14T14:28:30;33.80;81.70
22966;DHT22;11649;48.090;9.754;2022-08-14T14:31:00;33.70;80.70
22966;DHT22;11649;48.090;9.754;2022-08-14T14:33:34;33.60;82.60
22966;DHT22;11649;48.090;9.754;2022-08-14T14:36:20;33.60;83.20
22966;DHT22;11649;48.090;9.754;2022-08-14T14:38:59;33.80;82.10
22966;DHT22;11649;48.090;9.754;2022-08-14T14:41:29;33.90;83.40
22966;DHT22;11649;48.090;9.754;2022-08-14T14:44:08;33.90;80.30
22966;DHT22;11649;48.090;9.754;2022-08-14T14:46:42;33.50;82.30
22966;DHT22;11649;48.090;9.754;2022-08-14T14:49:10;33.00;82.20
22966;DHT22;11649;48.090;9.754;2022-08-14T14:51:42;33.20;83.30
22966;DHT22;11649;48.090;9.754;2022-08-14T14:54:18;33.30;81.80
22966;DHT22;11649;48.090;9.754;2022-08-14T14:57:01;33.00;83.00
22966;DHT22;11649;48.090;9.754;2022-08-14T14:59:34;32.60;81.80
22966;DHT22;11649;48.090;9.754;2022-08-14T15:02:05;32.30;82.10
22966;DHT22;11649;48.090;9.754;2022-08-14T15:04:36;32.20;82.90
22966;DHT22;11649;48.090;9.754;2022-08-14T15:07:05;32.10;82.60
22966;DHT22;11649;48.090;9.754;2022-08-14T15:09:35;32.30;82.90
22966;DHT22;11649;48.090;9.754;2022-08-14T15:12:02;32.50;83.50
22966;DHT22;11649;48.090;9.754;2022-08-14T15:14:49;33.00;85.90
22966;DHT22;11649;48.090;9.754;2022-08-14T15:17:23;33.30;80.10
22966;DHT22;11649;48.090;9.754;2022-08-14T15:19:54;33.60;80.50
22966;DHT22;11649;48.090;9.754;2022-08-14T15:22:22;33.00;81.00
22966;DHT22;11649;48.090;9.754;2022-08-14T15:24:50;32.90;81.60
22966;DHT22;11649;48.090;9.754;2022-08-14T15:27:17;32.10;83.40
22966;DHT22;11649;48.090;9.754;2022-08-14T15:29:52;32.00;84.30
22966;DHT22;11649;48.090;9.754;2022-08-14T15:32:19;31.80;84.40
22966;DHT22;11649;48.090;9.754;2022-08-14T15:34:49;32.50;82.00
22966;DHT22;11649;48.090;9.754;2022-08-14T15:37:19;32.20;82.20
22966;DHT22;11649;48.090;9.754;2022-08-14T15:39:49;31.90;83.20
22966;DHT22;11649;48.090;9.754;2022-08-14T15:42:19;31.40;83.20
22966;DHT22;11649;48.090;9.754;2022-08-14T15:44:50;31.20;83.30
22966;DHT22;11649;48.090;9.754;2022-08-14T15:47:28;30.70;84.60
22966;DHT22;11649;48.090;9.754;2022-08-14T15:49:58;30.50;86.20
22966;DHT22;11649;48.090;9.754;2022-08-14T15:52:30;30.20;87.80
22966;DHT22;11649;48.090;9.754;2022-08-14T15:55:12;30.10;90.10
22966;DHT22;11649;48.090;9.754;2022-08-14T15:57:44;29.90;90.20
22966;DHT22;11649;48.090;9.754;2022-08-14T16:00:34;30.40;90.10
22966;DHT22;11649;48.090;9.754;2022-08-14T16:03:20;30.50;90.10
22966;DHT22;11649;48.090;9.754;2022-08-14T16:06:04;30.10;90.30
22966;DHT22;11649;48.090;9.754;2022-08-14T16:08:37;29.70;91.10
22966;DHT22;11649;48.090;9.754;2022-08-14T16:11:07;29.30;90.70
22966;DHT22;11649;48.090;9.754;2022-08-14T16:13:35;29.00;91.40
22966;DHT22;11649;48.090;9.754;2022-08-14T16:16:11;29.00;91.60
22966;DHT22;11649;48.090;9.754;2022-08-14T16:18:59;29.00;91.70
22966;DHT22;11649;48.090;9.754;2022-08-14T16:21:28;29.10;91.30
22966;DHT22;11649;48.090;9.754;2022-08-14T16:23:58;28.90;91.40
22966;DHT22;11649;48.090;9.754;2022-08-14T16:26:26;28.80;91.40
22966;DHT22;11649;48.090;9.754;2022-08-14T16:28:59;28.40;91.60
22966;DHT22;11649;48.090;9.754;2022-08-14T16:31:33;28.20;91.80
22966;DHT22;11649;48.090;9.754;2022-08-14T16:34:05;27.80;92.50
22966;DHT22;11649;48.090;9.754;2022-08-14T16:36:53;27.70;92.90